createdAt,value
2017-11-18T00:00:31.477Z,83.73
2017-11-18T00:03:06.659Z,84.24
2017-11-18T00:05:41.232Z,84.32
2017-11-18T00:08:15.595Z,84.39
2017-11-18T00:10:50.087Z,84.19
2017-11-18T00:13:24.580Z,84.50
2017-11-18T00:15:59.071Z,84.93
2017-11-18T00:18:33.619Z,84.97
2017-11-18T00:21:08.527Z,84.66
2017-11-18T00:23:42.953Z,84.78
2017-11-18T00:26:17.388Z,84.91
2017-11-18T00:28:52.060Z,84.97
2017-11-18T00:31:26.554Z,84.81
2017-11-18T00:34:01.105Z,84.67
2017-11-18T00:36:35.481Z,84.51
2017-11-18T00:39:09.977Z,84.16
2017-11-18T00:41:44.348Z,83.64
2017-11-18T00:44:18.792Z,83.99
2017-11-18T00:46:53.148Z,83.76
2017-11-18T00:49:27.715Z,83.96
2017-11-18T00:52:02.164Z,84.17
2017-11-18T00:54:36.347Z,84.31
2017-11-18T00:57:10.772Z,84.00
2017-11-18T00:59:45.303Z,83.90
2017-11-18T01:02:19.656Z,84.19
2017-11-18T01:04:54.146Z,84.37
2017-11-18T01:07:28.544Z,84.47
2017-11-18T01:12:42.732Z,84.64
2017-11-18T01:15:17.494Z,84.61
2017-11-18T01:17:52.041Z,84.64
2017-11-18T01:20:26.407Z,84.90
2017-11-18T01:23:01.176Z,84.76
2017-11-18T01:25:35.644Z,84.87
2017-11-18T01:28:10.030Z,84.69
2017-11-18T01:30:44.543Z,84.87
2017-11-18T01:33:19.047Z,84.80
2017-11-18T01:35:53.515Z,84.54
2017-11-18T01:38:28.153Z,84.55
2017-11-18T01:41:02.523Z,84.69
2017-11-18T01:43:37.100Z,84.57
2017-11-18T01:46:11.243Z,84.72
2017-11-18T01:48:45.700Z,84.53
2017-11-18T01:51:20.172Z,84.33
2017-11-18T01:53:54.584Z,84.33
2017-11-18T01:56:29.127Z,84.50
2017-11-18T01:59:03.502Z,84.50
2017-11-18T02:01:38.248Z,84.39
2017-11-18T02:04:12.772Z,84.41
2017-11-18T02:06:47.222Z,84.15
2017-11-18T02:09:21.878Z,84.27
2017-11-18T02:11:56.443Z,84.12
2017-11-18T02:14:30.922Z,83.96
2017-11-18T02:17:05.374Z,83.48
2017-11-18T02:19:39.481Z,83.28
2017-11-18T02:22:13.833Z,83.01
2017-11-18T02:24:47.968Z,82.73
2017-11-18T02:27:22.345Z,82.09
2017-11-18T02:29:56.792Z,82.28
2017-11-18T02:32:31.210Z,82.07
2017-11-18T02:35:14.121Z,81.96
2017-11-18T02:37:48.694Z,81.98
2017-11-18T02:40:23.127Z,82.06
2017-11-18T02:42:57.171Z,82.67
2017-11-18T02:45:31.224Z,82.80
2017-11-18T02:48:05.406Z,82.64
2017-11-18T02:50:39.859Z,82.74
2017-11-18T02:53:14.316Z,82.64
2017-11-18T02:55:49.299Z,82.68
2017-11-18T02:58:23.426Z,82.46
2017-11-18T03:00:57.785Z,82.26
2017-11-18T03:03:32.079Z,82.51
2017-11-18T03:06:06.593Z,82.59
2017-11-18T03:08:41.012Z,82.56
2017-11-18T03:11:15.626Z,82.59
2017-11-18T03:13:50.423Z,82.60
2017-11-18T03:16:24.860Z,82.70
2017-11-18T03:18:59.255Z,82.80
2017-11-18T03:21:33.644Z,82.88
2017-11-18T03:24:08.238Z,83.11
2017-11-18T03:26:42.667Z,82.80
2017-11-18T03:29:17.411Z,83.02
2017-11-18T03:31:51.796Z,83.19
2017-11-18T03:34:26.519Z,83.34
2017-11-18T03:37:00.900Z,83.34
2017-11-18T03:39:35.391Z,83.28
2017-11-18T03:42:09.796Z,83.30
2017-11-18T03:44:44.285Z,83.21
2017-11-18T03:47:18.705Z,83.18
2017-11-18T03:49:52.891Z,83.23
2017-11-18T03:52:27.277Z,83.20
2017-11-18T03:55:02.302Z,83.11
2017-11-18T03:57:41.996Z,83.01
2017-11-18T04:00:16.056Z,82.92
2017-11-18T04:02:50.567Z,82.86
2017-11-18T04:05:25.001Z,82.59
2017-11-18T04:07:59.392Z,82.60
2017-11-18T04:10:33.756Z,82.55
2017-11-18T04:13:07.922Z,82.48
2017-11-18T04:15:42.200Z,82.48
2017-11-18T04:18:16.781Z,82.41
2017-11-18T04:20:51.187Z,82.63
2017-11-18T04:23:25.996Z,82.51
2017-11-18T04:26:00.430Z,82.28
2017-11-18T04:28:34.828Z,82.89
2017-11-18T04:31:09.233Z,82.95
2017-11-18T04:33:43.619Z,83.34
2017-11-18T04:36:18.094Z,83.37
2017-11-18T04:38:52.610Z,83.61
2017-11-18T04:41:27.011Z,83.62
2017-11-18T04:44:01.514Z,83.43
2017-11-18T04:46:36.135Z,83.35
2017-11-18T04:49:10.783Z,83.35
2017-11-18T04:51:45.257Z,83.22
2017-11-18T04:54:19.659Z,83.32
2017-11-18T04:56:54.154Z,83.02
2017-11-18T04:59:28.719Z,83.00
2017-11-18T05:02:03.199Z,83.04
2017-11-18T05:04:37.693Z,83.21
2017-11-18T05:07:12.063Z,83.10
2017-11-18T05:09:46.577Z,83.13
2017-11-18T05:12:21.011Z,83.10
2017-11-18T05:14:55.621Z,82.75
2017-11-18T05:17:29.985Z,82.85
2017-11-18T05:20:13.629Z,82.80
2017-11-18T05:22:48.132Z,82.58
2017-11-18T05:25:22.576Z,82.62
2017-11-18T05:27:57.139Z,82.30
2017-11-18T05:30:31.456Z,81.85
2017-11-18T05:33:06.020Z,81.80
2017-11-18T05:35:40.036Z,81.70
2017-11-18T05:38:13.896Z,81.87
2017-11-18T05:40:48.375Z,81.67
2017-11-18T05:43:22.955Z,81.33
2017-11-18T05:45:57.319Z,81.31
2017-11-18T05:48:31.976Z,81.84
2017-11-18T05:51:06.400Z,82.33
2017-11-18T05:53:41.020Z,82.05
2017-11-18T05:56:15.524Z,82.06
2017-11-18T05:58:49.908Z,82.22
2017-11-18T06:01:24.389Z,82.49
2017-11-18T06:03:58.619Z,82.67
2017-11-18T06:06:33.156Z,82.31
2017-11-18T06:09:07.493Z,82.31
2017-11-18T06:11:41.963Z,82.41
2017-11-18T06:14:16.453Z,82.31
2017-11-18T06:16:51.187Z,82.23
2017-11-18T06:19:25.751Z,82.43
2017-11-18T06:22:00.235Z,82.39
2017-11-18T06:24:34.719Z,82.24
2017-11-18T06:27:09.455Z,82.18
2017-11-18T06:29:44.005Z,81.79
2017-11-18T06:32:18.467Z,81.64
2017-11-18T06:34:52.945Z,81.30
2017-11-18T06:37:27.333Z,81.69
2017-11-18T06:40:02.308Z,80.67
2017-11-18T06:42:36.912Z,80.21
2017-11-18T06:45:14.832Z,80.13
2017-11-18T06:47:49.326Z,79.47
2017-11-18T06:50:23.775Z,79.37
2017-11-18T06:52:58.343Z,79.94
2017-11-18T06:55:32.736Z,78.25
2017-11-18T06:58:07.404Z,77.75
2017-11-18T07:00:41.771Z,78.15
2017-11-18T07:03:16.407Z,78.16
2017-11-18T07:05:50.810Z,78.36
2017-11-18T07:08:25.356Z,79.14
2017-11-18T07:10:59.828Z,78.34
2017-11-18T07:13:34.176Z,78.35
2017-11-18T07:16:08.658Z,78.67
2017-11-18T07:18:43.329Z,78.80
2017-11-18T07:21:17.731Z,78.06
2017-11-18T07:23:52.315Z,78.21
2017-11-18T07:26:26.772Z,77.65
2017-11-18T07:29:01.272Z,77.53
2017-11-18T07:31:35.715Z,74.86
2017-11-18T07:34:10.100Z,74.71
2017-11-18T07:36:44.608Z,74.79
2017-11-18T07:39:19.099Z,76.16
2017-11-18T07:41:54.290Z,75.15
2017-11-18T07:44:28.907Z,74.70
2017-11-18T07:47:03.421Z,74.81
2017-11-18T07:49:37.906Z,74.79
2017-11-18T07:52:12.440Z,74.85
2017-11-18T07:54:46.895Z,74.67
2017-11-18T07:57:21.336Z,75.07
2017-11-18T07:59:55.926Z,75.81
2017-11-18T08:02:30.374Z,75.81
2017-11-18T08:05:13.307Z,75.39
2017-11-18T08:07:47.971Z,75.23
2017-11-18T08:10:22.364Z,75.61
2017-11-18T08:12:56.948Z,76.39
2017-11-18T08:15:31.315Z,76.00
2017-11-18T08:18:05.805Z,76.01
2017-11-18T08:20:40.324Z,74.69
2017-11-18T08:23:14.859Z,74.24
2017-11-18T08:25:49.231Z,74.67
2017-11-18T08:28:24.795Z,74.27
2017-11-18T08:30:59.161Z,74.29
2017-11-18T08:33:33.744Z,74.00
2017-11-18T08:36:19.387Z,74.03
2017-11-18T08:38:53.927Z,74.31
2017-11-18T08:41:28.405Z,74.34
2017-11-18T08:44:03.024Z,74.41
2017-11-18T08:46:37.496Z,74.05
2017-11-18T08:49:12.020Z,73.46
2017-11-18T08:51:46.402Z,72.85
2017-11-18T08:54:20.767Z,72.54
2017-11-18T08:56:54.884Z,73.02
2017-11-18T08:59:29.655Z,71.73
2017-11-18T09:02:04.248Z,70.75
2017-11-18T09:04:38.812Z,70.51
2017-11-18T09:07:13.229Z,70.41
2017-11-18T09:09:47.736Z,70.61
2017-11-18T09:12:22.167Z,70.35
2017-11-18T09:14:56.733Z,70.08
2017-11-18T09:17:31.164Z,70.10
2017-11-18T09:20:14.501Z,70.69
2017-11-18T09:22:48.929Z,70.45
2017-11-18T09:25:23.383Z,69.58
2017-11-18T09:27:57.748Z,69.40
2017-11-18T09:30:32.204Z,68.88
2017-11-18T09:33:06.675Z,68.69
2017-11-18T09:35:41.160Z,68.56
2017-11-18T09:38:16.447Z,67.20
2017-11-18T09:40:51.024Z,68.73
2017-11-18T09:43:25.492Z,67.93
2017-11-18T09:45:59.971Z,64.28
2017-11-18T09:48:34.386Z,62.58
2017-11-18T09:51:08.784Z,63.41
2017-11-18T09:53:43.357Z,65.67
2017-11-18T09:56:17.792Z,65.94
2017-11-18T09:58:52.303Z,64.53
2017-11-18T10:01:26.778Z,63.84
2017-11-18T10:04:01.296Z,63.95
2017-11-18T10:06:35.382Z,66.88
2017-11-18T10:09:09.819Z,67.48
2017-11-18T10:11:44.426Z,67.70
2017-11-18T10:14:18.613Z,67.14
2017-11-18T10:16:53.128Z,66.00
2017-11-18T10:19:27.668Z,65.58
2017-11-18T10:22:02.440Z,65.86
2017-11-18T10:24:36.849Z,66.43
2017-11-18T10:27:11.344Z,65.97
2017-11-18T10:29:45.924Z,66.20
2017-11-18T10:32:20.391Z,65.75
2017-11-18T10:34:54.644Z,65.13
2017-11-18T10:37:29.070Z,65.67
2017-11-18T10:40:10.159Z,65.52
2017-11-18T10:42:44.552Z,65.65
2017-11-18T10:45:18.584Z,66.49
2017-11-18T10:47:53.292Z,66.67
2017-11-18T10:50:27.807Z,67.55
2017-11-18T10:53:02.314Z,67.90
2017-11-18T10:55:36.700Z,68.36
2017-11-18T10:58:11.439Z,68.25
2017-11-18T11:00:45.709Z,68.76
2017-11-18T11:03:20.240Z,68.62
2017-11-18T11:05:54.677Z,67.62
2017-11-18T11:08:29.072Z,68.03
2017-11-18T11:11:03.308Z,68.08
2017-11-18T11:13:37.984Z,68.39
2017-11-18T11:16:12.186Z,68.20
2017-11-18T11:18:46.747Z,67.91
2017-11-18T11:21:21.168Z,67.32
2017-11-18T11:23:55.588Z,67.36
2017-11-18T11:26:30.146Z,68.12
2017-11-18T11:29:04.919Z,68.03
2017-11-18T11:31:39.334Z,68.42
2017-11-18T11:34:13.753Z,68.28
2017-11-18T11:36:48.184Z,68.88
2017-11-18T11:39:22.724Z,69.45
2017-11-18T11:41:57.116Z,69.59
2017-11-18T11:44:31.619Z,69.67
2017-11-18T11:47:05.659Z,69.72
2017-11-18T11:49:40.143Z,69.65
2017-11-18T11:52:14.525Z,69.17
2017-11-18T11:54:48.728Z,68.83
2017-11-18T11:57:23.152Z,68.61
2017-11-18T11:59:57.642Z,68.88
2017-11-18T12:02:32.047Z,68.62
2017-11-18T12:05:15.063Z,69.19
2017-11-18T12:07:49.563Z,68.77
2017-11-18T12:10:24.013Z,68.69
2017-11-18T12:12:58.801Z,68.31
2017-11-18T12:15:33.667Z,67.97
2017-11-18T12:18:08.136Z,67.95
2017-11-18T12:20:42.627Z,67.66
2017-11-18T12:23:17.163Z,67.62
2017-11-18T12:25:51.919Z,67.55
2017-11-18T12:28:26.452Z,66.93
2017-11-18T12:31:00.881Z,67.37
2017-11-18T12:33:35.300Z,67.74
2017-11-18T12:36:09.680Z,67.59
2017-11-18T12:38:44.755Z,67.94
2017-11-18T12:41:19.193Z,67.83
2017-11-18T12:43:55.184Z,68.06
2017-11-18T12:46:29.364Z,67.41
2017-11-18T12:49:03.996Z,67.43
2017-11-18T12:51:38.451Z,67.75
2017-11-18T12:54:13.352Z,66.50
2017-11-18T12:56:47.919Z,65.30
2017-11-18T12:59:22.450Z,65.64
2017-11-18T13:01:56.924Z,65.09
2017-11-18T13:04:31.371Z,65.70
2017-11-18T13:07:05.806Z,66.49
2017-11-18T13:09:40.357Z,67.21
2017-11-18T13:12:15.120Z,67.52
2017-11-18T13:14:50.241Z,66.62
2017-11-18T13:17:24.529Z,66.32
2017-11-18T13:19:58.927Z,65.62
2017-11-18T13:22:33.381Z,66.09
2017-11-18T13:25:14.424Z,65.39
2017-11-18T13:27:48.621Z,63.99
2017-11-18T13:30:22.753Z,62.67
2017-11-18T13:32:57.225Z,63.61
2017-11-18T13:35:31.767Z,62.95
2017-11-18T13:38:07.119Z,62.84
2017-11-18T13:40:42.687Z,63.96
2017-11-18T13:43:17.080Z,65.90
2017-11-18T13:45:52.703Z,67.01
2017-11-18T13:48:27.525Z,66.80
2017-11-18T13:51:01.982Z,68.36
2017-11-18T13:53:37.028Z,68.96
2017-11-18T13:56:11.455Z,69.13
2017-11-18T13:58:46.027Z,68.76
2017-11-18T14:01:20.155Z,69.50
2017-11-18T14:03:54.599Z,69.95
2017-11-18T14:06:28.985Z,70.24
2017-11-18T14:09:03.407Z,70.34
2017-11-18T14:11:37.791Z,69.73
2017-11-18T14:14:12.365Z,70.33
2017-11-18T14:16:46.824Z,70.79
2017-11-18T14:19:21.193Z,70.95
2017-11-18T14:21:55.575Z,70.71
2017-11-18T14:24:30.032Z,70.47
2017-11-18T14:27:04.191Z,69.88
2017-11-18T14:29:38.972Z,69.58
2017-11-18T14:32:13.411Z,70.01
2017-11-18T14:34:47.969Z,70.25
2017-11-18T14:37:22.280Z,70.24
2017-11-18T14:39:56.768Z,70.30
2017-11-18T14:42:31.208Z,70.33
2017-11-18T14:45:10.845Z,70.46
2017-11-18T14:47:45.724Z,70.42
2017-11-18T14:50:20.111Z,70.45
2017-11-18T14:52:54.563Z,70.66
2017-11-18T14:55:28.733Z,71.06
2017-11-18T14:58:03.183Z,71.04
2017-11-18T15:00:37.063Z,70.72
2017-11-18T15:03:11.645Z,70.76
2017-11-18T15:05:45.713Z,70.59
2017-11-18T15:08:19.811Z,70.81
2017-11-18T15:10:53.711Z,70.54
2017-11-18T15:13:27.617Z,70.40
2017-11-18T15:16:01.936Z,70.54
2017-11-18T15:18:40.279Z,70.86
2017-11-18T15:21:27.973Z,71.04
2017-11-18T15:24:17.871Z,71.42
2017-11-18T15:26:57.408Z,71.32
2017-11-18T15:29:31.823Z,71.19
2017-11-18T15:32:07.819Z,71.17
2017-11-18T15:34:56.559Z,70.97
2017-11-18T15:40:39.743Z,71.07
2017-11-18T15:43:15.318Z,71.37
2017-11-18T15:45:49.144Z,71.14
2017-11-18T15:48:28.779Z,71.37
2017-11-18T15:54:14.985Z,71.07
2017-11-18T15:57:07.248Z,71.15
2017-11-18T15:59:41.247Z,71.71
2017-11-18T16:02:21.016Z,71.75
2017-11-18T16:04:56.577Z,72.06
2017-11-18T16:07:31.083Z,72.62
2017-11-18T16:10:15.063Z,72.67
2017-11-18T16:12:49.236Z,73.14
2017-11-18T16:15:23.975Z,73.20
2017-11-18T16:17:58.392Z,73.08
2017-11-18T16:20:32.682Z,73.02
2017-11-18T16:23:07.864Z,72.94
2017-11-18T16:25:42.102Z,73.05
2017-11-18T16:28:16.169Z,73.79
2017-11-18T16:30:51.200Z,73.75
2017-11-18T16:33:25.443Z,74.23
2017-11-18T16:35:59.556Z,74.07
2017-11-18T16:38:33.694Z,74.43
2017-11-18T16:41:08.742Z,74.67
2017-11-18T16:43:42.774Z,74.58
2017-11-18T16:46:16.874Z,74.67
2017-11-18T16:48:51.102Z,74.34
2017-11-18T16:51:25.223Z,74.66
2017-11-18T16:53:59.944Z,75.08
2017-11-18T16:56:34.213Z,74.81
2017-11-18T16:59:08.988Z,74.88
2017-11-18T17:01:43.434Z,74.94
2017-11-18T17:04:17.708Z,75.08
2017-11-18T17:06:51.766Z,74.90
2017-11-18T17:09:27.395Z,75.17
2017-11-18T17:12:01.646Z,75.31
2017-11-18T17:14:35.685Z,75.12
2017-11-18T17:17:09.860Z,74.73
2017-11-18T17:19:43.968Z,74.56
2017-11-18T17:22:18.425Z,74.82
2017-11-18T17:24:52.636Z,74.85
2017-11-18T17:27:26.715Z,75.28
2017-11-18T17:30:00.864Z,74.92
2017-11-18T17:32:35.324Z,74.88
2017-11-18T17:35:18.361Z,74.54
2017-11-18T17:37:53.265Z,74.49
2017-11-18T17:40:27.646Z,74.38
2017-11-18T17:43:01.904Z,74.44
2017-11-18T17:45:36.531Z,73.91
2017-11-18T17:48:10.620Z,73.82
2017-11-18T17:50:45.068Z,73.42
2017-11-18T17:53:19.359Z,73.60
2017-11-18T17:55:53.403Z,73.87
2017-11-18T17:58:28.958Z,74.04
2017-11-18T18:01:03.644Z,73.90
2017-11-18T18:03:40.212Z,73.99
2017-11-18T18:06:14.306Z,74.10
2017-11-18T18:08:50.844Z,74.21
2017-11-18T18:11:25.279Z,74.08
2017-11-18T18:13:59.698Z,74.01
2017-11-18T18:16:34.148Z,74.06
2017-11-18T18:19:08.739Z,74.11
2017-11-18T18:21:42.828Z,74.14
2017-11-18T18:24:17.420Z,74.27
2017-11-18T18:26:51.788Z,74.56
2017-11-18T18:29:26.479Z,74.74
2017-11-18T18:32:00.960Z,74.58
2017-11-18T18:34:35.415Z,74.50
2017-11-18T18:37:09.855Z,74.68
2017-11-18T18:39:44.477Z,74.72
2017-11-18T18:42:18.529Z,74.73
2017-11-18T18:44:53.169Z,74.40
2017-11-18T18:47:27.764Z,74.88
2017-11-18T18:50:02.451Z,74.96
2017-11-18T18:52:42.175Z,74.66
2017-11-18T18:55:16.242Z,74.28
2017-11-18T18:57:50.827Z,73.88
2017-11-18T19:00:25.434Z,73.77
2017-11-18T19:02:59.552Z,73.36
2017-11-18T19:05:34.033Z,73.34
2017-11-18T19:08:08.599Z,73.30
2017-11-18T19:10:43.363Z,73.32
2017-11-18T19:13:17.755Z,73.31
2017-11-18T19:15:52.249Z,73.22
2017-11-18T19:18:26.856Z,73.35
2017-11-18T19:21:01.244Z,73.31
2017-11-18T19:23:35.712Z,73.31
2017-11-18T19:26:10.151Z,73.07
2017-11-18T19:28:44.771Z,72.90
2017-11-18T19:31:19.156Z,72.34
2017-11-18T19:33:53.630Z,72.38
2017-11-18T19:36:28.099Z,72.46
2017-11-18T19:39:02.759Z,72.17
2017-11-18T19:41:37.114Z,72.53
2017-11-18T19:44:11.676Z,72.63
2017-11-18T19:46:46.235Z,72.74
2017-11-18T19:49:20.709Z,72.75
2017-11-18T19:51:54.883Z,72.87
2017-11-18T19:54:29.388Z,72.90
2017-11-18T19:57:03.644Z,72.95
2017-11-18T19:59:38.155Z,72.63
2017-11-18T20:02:12.604Z,72.69
2017-11-18T20:04:47.267Z,72.82
2017-11-18T20:07:21.455Z,72.90
2017-11-18T20:09:56.502Z,72.64
2017-11-18T20:12:30.884Z,72.61
2017-11-18T20:15:12.722Z,72.35
2017-11-18T20:17:47.244Z,72.29
2017-11-18T20:20:21.628Z,72.53
2017-11-18T20:22:56.119Z,72.42
2017-11-18T20:25:30.975Z,72.50
2017-11-18T20:28:05.466Z,72.85
2017-11-18T20:30:39.516Z,73.12
2017-11-18T20:33:13.967Z,73.03
2017-11-18T20:35:49.035Z,73.01
2017-11-18T20:38:23.428Z,73.11
2017-11-18T20:40:58.331Z,72.45
2017-11-18T20:43:32.913Z,71.70
2017-11-18T20:46:07.374Z,71.83
2017-11-18T20:48:41.771Z,71.99
2017-11-18T20:51:16.151Z,71.06
2017-11-18T20:53:51.176Z,71.13
2017-11-18T20:56:25.557Z,70.12
2017-11-18T20:59:00.088Z,69.70
2017-11-18T21:01:37.310Z,69.34
2017-11-18T21:04:11.652Z,69.07
2017-11-18T21:06:46.065Z,68.78
2017-11-18T21:09:20.567Z,68.24
2017-11-18T21:11:54.981Z,67.84
2017-11-18T21:14:29.520Z,67.96
2017-11-18T21:17:03.927Z,67.94
2017-11-18T21:19:38.448Z,68.11
2017-11-18T21:22:12.880Z,67.71
2017-11-18T21:24:47.457Z,67.63
2017-11-18T21:27:21.715Z,67.52
2017-11-18T21:29:56.096Z,67.56
2017-11-18T21:32:30.540Z,67.45
2017-11-18T21:35:06.874Z,67.25
2017-11-18T21:37:42.462Z,67.16
2017-11-18T21:40:16.676Z,66.94
2017-11-18T21:42:52.403Z,66.64
2017-11-18T21:45:27.013Z,66.76
2017-11-18T21:48:01.697Z,66.88
2017-11-18T21:50:46.206Z,66.65
2017-11-18T21:53:24.275Z,66.02
2017-11-18T21:55:58.748Z,66.35
2017-11-18T21:58:34.507Z,66.52
2017-11-18T22:01:10.895Z,66.61
2017-11-18T22:03:45.376Z,66.40
2017-11-18T22:06:20.028Z,66.15
2017-11-18T22:08:54.421Z,65.60
2017-11-18T22:11:28.520Z,64.95
2017-11-18T22:14:03.041Z,64.61
2017-11-18T22:16:37.494Z,64.61
2017-11-18T22:19:12.004Z,63.61
2017-11-18T22:21:46.395Z,62.34
2017-11-18T22:24:21.808Z,62.49
2017-11-18T22:26:56.264Z,62.85
2017-11-18T22:29:30.827Z,62.77
2017-11-18T22:32:05.228Z,63.16
2017-11-18T22:34:42.101Z,63.18
2017-11-18T22:37:16.471Z,63.90
2017-11-18T22:39:51.328Z,64.22
2017-11-18T22:42:26.765Z,64.64
2017-11-18T22:45:01.331Z,64.60
2017-11-18T22:47:35.724Z,64.81
2017-11-18T22:50:14.668Z,64.60
2017-11-18T22:52:49.019Z,64.52
2017-11-18T22:55:23.395Z,64.56
2017-11-18T22:57:57.971Z,64.89
2017-11-18T23:00:41.533Z,64.95
2017-11-18T23:03:15.920Z,63.86
2017-11-18T23:05:50.283Z,64.46
2017-11-18T23:08:25.510Z,64.52
2017-11-18T23:10:59.982Z,64.53
2017-11-18T23:13:34.460Z,64.43
2017-11-18T23:16:08.819Z,64.37
2017-11-18T23:18:43.264Z,64.10
2017-11-18T23:21:17.687Z,64.67
2017-11-18T23:23:52.163Z,64.44
2017-11-18T23:26:26.583Z,64.64
2017-11-18T23:29:01.031Z,63.91
2017-11-18T23:31:35.122Z,64.15
2017-11-18T23:34:09.620Z,63.94
2017-11-18T23:36:43.980Z,63.72
2017-11-18T23:39:18.733Z,63.44
2017-11-18T23:41:53.133Z,62.96
2017-11-18T23:44:27.666Z,61.81
2017-11-18T23:47:03.020Z,61.92
2017-11-18T23:49:37.548Z,61.46
2017-11-18T23:52:12.067Z,60.72
2017-11-18T23:54:46.079Z,60.45
2017-11-18T23:57:20.446Z,60.34
2017-11-18T23:59:54.844Z,59.80
